sensor_id;sensor_type;location;lat;lon;timestamp;temperature;humidity
57664;DHT22;43493;53.098;6.064;2022-08-19T00:00:37;17.30;99.90
57664;DHT22;43493;53.098;6.064;2022-08-19T00:03:05;17.30;99.90
57664;DHT22;43493;53.098;6.064;2022-08-19T00:05:31;17.20;99.90
57664;DHT22;43493;53.098;6.064;2022-08-19T00:07:57;17.30;99.90
57664;DHT22;43493;53.098;6.064;2022-08-19T00:10:23;17.30;99.90
57664;DHT22;43493;53.098;6.064;2022-08-19T00:12:50;17.30;99.90
57664;DHT22;43493;53.098;6.064;2022-08-19T00:15:19;17.20;99.90
57664;DHT22;43493;53.098;6.064;2022-08-19T00:17:46;17.20;99.90
57664;DHT22;43493;53.098;6.064;2022-08-19T00:20:16;17.30;99.90
57664;DHT22;43493;53.098;6.064;2022-08-19T00:22:43;17.30;99.90
57664;DHT22;43493;53.098;6.064;2022-08-19T00:25:10;17.30;99.90
57664;DHT22;43493;53.098;6.064;2022-08-19T00:27:36;17.20;99.90
57664;DHT22;43493;53.098;6.064;2022-08-19T00:30:03;17.20;99.90
57664;DHT22;43493;53.098;6.064;2022-08-19T00:32:29;17.10;99.90
57664;DHT22;43493;53.098;6.064;2022-08-19T00:34:55;17.10;99.90
57664;DHT22;43493;53.098;6.064;2022-08-19T00:37:22;17.10;99.90
57664;DHT22;43493;53.098;6.064;2022-08-19T00:39:49;17.10;99.90
57664;DHT22;43493;53.098;6.064;2022-08-19T00:42:17;17.20;99.90
57664;DHT22;43493;53.098;6.064;2022-08-19T00:44:43;17.10;99.90
57664;DHT22;43493;53.098;6.064;2022-08-19T00:47:09;17.10;99.90
57664;DHT22;43493;53.098;6.064;2022-08-19T00:49:40;17.10;99.90
57664;DHT22;43493;53.098;6.064;2022-08-19T00:52:11;17.10;99.90
57664;DHT22;43493;53.098;6.064;2022-08-19T00:54:39;17.20;99.90
57664;DHT22;43493;53.098;6.064;2022-08-19T00:57:09;17.10;99.90
57664;DHT22;43493;53.098;6.064;2022-08-19T00:59:39;17.00;99.90
57664;DHT22;43493;53.098;6.064;2022-08-19T01:02:05;17.00;99.90
57664;DHT22;43493;53.098;6.064;2022-08-19T01:04:31;17.00;99.90
57664;DHT22;43493;53.098;6.064;2022-08-19T01:06:57;17.00;99.90
57664;DHT22;43493;53.098;6.064;2022-08-19T01:09:23;17.00;99.90
57664;DHT22;43493;53.098;6.064;2022-08-19T01:11:50;17.00;99.90
57664;DHT22;43493;53.098;6.064;2022-08-19T01:14:16;16.90;99.90
57664;DHT22;43493;53.098;6.064;2022-08-19T01:16:43;17.00;99.90
57664;DHT22;43493;53.098;6.064;2022-08-19T01:21:55;16.90;99.90
57664;DHT22;43493;53.098;6.064;2022-08-19T01:24:23;16.80;99.90
57664;DHT22;43493;53.098;6.064;2022-08-19T01:26:50;16.80;99.90
57664;DHT22;43493;53.098;6.064;2022-08-19T01:29:15;16.70;99.90
57664;DHT22;43493;53.098;6.064;2022-08-19T01:31:41;16.70;99.90
57664;DHT22;43493;53.098;6.064;2022-08-19T01:34:07;16.70;99.90
57664;DHT22;43493;53.098;6.064;2022-08-19T01:36:41;16.80;99.90
57664;DHT22;43493;53.098;6.064;2022-08-19T01:39:12;16.80;99.90
57664;DHT22;43493;53.098;6.064;2022-08-19T01:41:38;16.80;99.90
57664;DHT22;43493;53.098;6.064;2022-08-19T01:44:05;16.70;99.90
57664;DHT22;43493;53.098;6.064;2022-08-19T01:46:31;16.70;99.90
57664;DHT22;43493;53.098;6.064;2022-08-19T01:48:58;16.70;99.90
57664;DHT22;43493;53.098;6.064;2022-08-19T01:51:24;16.70;99.90
57664;DHT22;43493;53.098;6.064;2022-08-19T01:53:50;16.70;99.90
57664;DHT22;43493;53.098;6.064;2022-08-19T01:56:17;16.70;99.90
57664;DHT22;43493;53.098;6.064;2022-08-19T01:58:56;16.70;99.90
57664;DHT22;43493;53.098;6.064;2022-08-19T02:01:23;16.60;99.90
57664;DHT22;43493;53.098;6.064;2022-08-19T02:03:49;16.60;99.90
57664;DHT22;43493;53.098;6.064;2022-08-19T02:06:14;16.60;99.90
57664;DHT22;43493;53.098;6.064;2022-08-19T02:08:43;16.60;99.90
57664;DHT22;43493;53.098;6.064;2022-08-19T02:11:22;16.60;99.90
57664;DHT22;43493;53.098;6.064;2022-08-19T02:13:48;16.50;99.90
57664;DHT22;43493;53.098;6.064;2022-08-19T02:16:16;16.50;99.90
57664;DHT22;43493;53.098;6.064;2022-08-19T02:18:42;16.50;99.90
57664;DHT22;43493;53.098;6.064;2022-08-19T02:21:07;16.60;99.90
57664;DHT22;43493;53.098;6.064;2022-08-19T02:23:33;16.60;99.90
57664;DHT22;43493;53.098;6.064;2022-08-19T02:25:59;16.50;99.90
57664;DHT22;43493;53.098;6.064;2022-08-19T02:28:24;16.50;99.90
57664;DHT22;43493;53.098;6.064;2022-08-19T02:30:50;16.50;99.90
57664;DHT22;43493;53.098;6.064;2022-08-19T02:33:16;16.50;99.90
57664;DHT22;43493;53.098;6.064;2022-08-19T02:35:45;16.50;99.90
57664;DHT22;43493;53.098;6.064;2022-08-19T02:38:12;16.50;99.90
57664;DHT22;43493;53.098;6.064;2022-08-19T02:41:02;16.50;99.90
57664;DHT22;43493;53.098;6.064;2022-08-19T02:43:29;16.50;99.90
57664;DHT22;43493;53.098;6.064;2022-08-19T02:45:55;16.40;99.90
57664;DHT22;43493;53.098;6.064;2022-08-19T02:48:23;16.40;99.90
57664;DHT22;43493;53.098;6.064;2022-08-19T02:50:50;16.40;99.90
57664;DHT22;43493;53.098;6.064;2022-08-19T02:53:22;16.30;99.90
57664;DHT22;43493;53.098;6.064;2022-08-19T02:55:49;16.30;99.90
57664;DHT22;43493;53.098;6.064;2022-08-19T02:58:16;16.30;99.90
57664;DHT22;43493;53.098;6.064;2022-08-19T03:00:48;16.30;99.90
57664;DHT22;43493;53.098;6.064;2022-08-19T03:03:15;16.20;99.90
57664;DHT22;43493;53.098;6.064;2022-08-19T03:05:41;16.30;99.90
57664;DHT22;43493;53.098;6.064;2022-08-19T03:08:07;16.30;99.90
57664;DHT22;43493;53.098;6.064;2022-08-19T03:10:41;16.30;99.90
57664;DHT22;43493;53.098;6.064;2022-08-19T03:13:10;16.40;99.90
57664;DHT22;43493;53.098;6.064;2022-08-19T03:15:39;16.40;99.90
57664;DHT22;43493;53.098;6.064;2022-08-19T03:18:05;16.30;99.90
57664;DHT22;43493;53.098;6.064;2022-08-19T03:20:31;16.30;99.90
57664;DHT22;43493;53.098;6.064;2022-08-19T03:22:57;16.30;99.90
57664;DHT22;43493;53.098;6.064;2022-08-19T03:25:22;16.30;99.90
57664;DHT22;43493;53.098;6.064;2022-08-19T03:27:48;16.30;99.90
57664;DHT22;43493;53.098;6.064;2022-08-19T03:30:14;16.30;99.90
57664;DHT22;43493;53.098;6.064;2022-08-19T03:32:40;16.40;99.90
57664;DHT22;43493;53.098;6.064;2022-08-19T03:35:06;16.40;99.90
57664;DHT22;43493;53.098;6.064;2022-08-19T03:37:32;16.30;99.90
57664;DHT22;43493;53.098;6.064;2022-08-19T03:39:58;16.30;99.90
57664;DHT22;43493;53.098;6.064;2022-08-19T03:42:23;16.30;99.90
57664;DHT22;43493;53.098;6.064;2022-08-19T03:44:52;16.20;99.90
57664;DHT22;43493;53.098;6.064;2022-08-19T03:47:18;16.20;99.90
57664;DHT22;43493;53.098;6.064;2022-08-19T03:49:43;16.20;99.90
57664;DHT22;43493;53.098;6.064;2022-08-19T03:52:09;16.20;99.90
57664;DHT22;43493;53.098;6.064;2022-08-19T03:54:36;16.20;99.90
57664;DHT22;43493;53.098;6.064;2022-08-19T03:57:04;16.20;99.90
57664;DHT22;43493;53.098;6.064;2022-08-19T04:02:00;16.20;99.90
57664;DHT22;43493;53.098;6.064;2022-08-19T04:04:26;16.10;99.90
57664;DHT22;43493;53.098;6.064;2022-08-19T04:06:53;16.10;99.90
57664;DHT22;43493;53.098;6.064;2022-08-19T04:09:19;16.20;99.90
57664;DHT22;43493;53.098;6.064;2022-08-19T04:11:51;16.20;99.90
57664;DHT22;43493;53.098;6.064;2022-08-19T04:14:25;16.10;99.90
57664;DHT22;43493;53.098;6.064;2022-08-19T04:16:54;16.20;99.90
57664;DHT22;43493;53.098;6.064;2022-08-19T04:19:20;16.10;99.90
57664;DHT22;43493;53.098;6.064;2022-08-19T04:21:48;16.10;99.90
57664;DHT22;43493;53.098;6.064;2022-08-19T04:24:15;16.20;99.90
57664;DHT22;43493;53.098;6.064;2022-08-19T04:26:41;16.20;99.90
57664;DHT22;43493;53.098;6.064;2022-08-19T04:29:11;16.20;99.90
57664;DHT22;43493;53.098;6.064;2022-08-19T04:31:37;16.20;99.90
57664;DHT22;43493;53.098;6.064;2022-08-19T04:34:06;16.20;99.90
57664;DHT22;43493;53.098;6.064;2022-08-19T04:36:34;16.20;99.90
57664;DHT22;43493;53.098;6.064;2022-08-19T04:39:07;16.20;99.90
57664;DHT22;43493;53.098;6.064;2022-08-19T04:41:33;16.20;99.90
57664;DHT22;43493;53.098;6.064;2022-08-19T04:44:17;16.20;99.90
57664;DHT22;43493;53.098;6.064;2022-08-19T04:46:44;16.20;99.90
57664;DHT22;43493;53.098;6.064;2022-08-19T04:49:10;16.20;99.90
57664;DHT22;43493;53.098;6.064;2022-08-19T04:51:39;16.20;99.90
57664;DHT22;43493;53.098;6.064;2022-08-19T04:54:05;16.30;99.90
57664;DHT22;43493;53.098;6.064;2022-08-19T04:56:31;16.30;99.90
57664;DHT22;43493;53.098;6.064;2022-08-19T04:58:57;16.30;99.90
57664;DHT22;43493;53.098;6.064;2022-08-19T05:01:29;16.30;99.90
57664;DHT22;43493;53.098;6.064;2022-08-19T05:03:56;16.30;99.90
57664;DHT22;43493;53.098;6.064;2022-08-19T05:06:23;16.30;99.90
57664;DHT22;43493;53.098;6.064;2022-08-19T05:08:49;16.30;99.90
57664;DHT22;43493;53.098;6.064;2022-08-19T05:11:18;16.30;99.90
57664;DHT22;43493;53.098;6.064;2022-08-19T05:13:46;16.30;99.90
57664;DHT22;43493;53.098;6.064;2022-08-19T05:16:13;16.30;99.90
57664;DHT22;43493;53.098;6.064;2022-08-19T05:18:39;16.40;99.90
57664;DHT22;43493;53.098;6.064;2022-08-19T05:21:24;16.40;99.90
57664;DHT22;43493;53.098;6.064;2022-08-19T05:24:08;16.50;99.90
57664;DHT22;43493;53.098;6.064;2022-08-19T05:26:43;16.50;99.90
57664;DHT22;43493;53.098;6.064;2022-08-19T05:29:09;16.60;99.90
57664;DHT22;43493;53.098;6.064;2022-08-19T05:31:36;16.60;99.90
57664;DHT22;43493;53.098;6.064;2022-08-19T05:34:04;16.60;99.90
57664;DHT22;43493;53.098;6.064;2022-08-19T05:36:35;16.60;99.90
57664;DHT22;43493;53.098;6.064;2022-08-19T05:39:02;16.70;99.90
57664;DHT22;43493;53.098;6.064;2022-08-19T05:41:29;16.70;99.90
57664;DHT22;43493;53.098;6.064;2022-08-19T05:43:57;16.80;99.90
57664;DHT22;43493;53.098;6.064;2022-08-19T05:46:23;16.90;99.90
57664;DHT22;43493;53.098;6.064;2022-08-19T05:48:50;16.90;99.90
57664;DHT22;43493;53.098;6.064;2022-08-19T05:51:16;17.00;99.90
57664;DHT22;43493;53.098;6.064;2022-08-19T05:53:42;17.10;99.90
57664;DHT22;43493;53.098;6.064;2022-08-19T05:56:12;17.40;99.90
57664;DHT22;43493;53.098;6.064;2022-08-19T05:58:38;18.30;99.90
57664;DHT22;43493;53.098;6.064;2022-08-19T06:01:09;19.50;99.90
57664;DHT22;43493;53.098;6.064;2022-08-19T06:03:36;20.70;99.90
57664;DHT22;43493;53.098;6.064;2022-08-19T06:06:04;21.70;99.90
57664;DHT22;43493;53.098;6.064;2022-08-19T06:08:31;22.60;99.90
57664;DHT22;43493;53.098;6.064;2022-08-19T06:10:57;23.90;99.90
57664;DHT22;43493;53.098;6.064;2022-08-19T06:13:22;24.50;99.90
57664;DHT22;43493;53.098;6.064;2022-08-19T06:15:49;25.10;99.90
57664;DHT22;43493;53.098;6.064;2022-08-19T06:20:42;25.80;99.90
57664;DHT22;43493;53.098;6.064;2022-08-19T06:23:08;26.40;99.90
57664;DHT22;43493;53.098;6.064;2022-08-19T06:25:35;26.90;99.90
57664;DHT22;43493;53.098;6.064;2022-08-19T06:28:00;27.00;99.80
57664;DHT22;43493;53.098;6.064;2022-08-19T06:30:27;27.40;90.40
57664;DHT22;43493;53.098;6.064;2022-08-19T06:32:53;27.70;95.80
57664;DHT22;43493;53.098;6.064;2022-08-19T06:35:19;28.10;92.50
57664;DHT22;43493;53.098;6.064;2022-08-19T06:37:45;28.60;90.70
57664;DHT22;43493;53.098;6.064;2022-08-19T06:40:11;28.80;84.80
57664;DHT22;43493;53.098;6.064;2022-08-19T06:42:38;29.20;81.50
57664;DHT22;43493;53.098;6.064;2022-08-19T06:45:05;29.60;76.20
57664;DHT22;43493;53.098;6.064;2022-08-19T06:47:33;29.90;73.40
57664;DHT22;43493;53.098;6.064;2022-08-19T06:49:59;29.70;72.30
57664;DHT22;43493;53.098;6.064;2022-08-19T06:52:33;30.00;70.40
57664;DHT22;43493;53.098;6.064;2022-08-19T06:54:59;30.40;67.70
57664;DHT22;43493;53.098;6.064;2022-08-19T06:57:26;30.50;66.60
57664;DHT22;43493;53.098;6.064;2022-08-19T07:02:19;31.20;59.70
57664;DHT22;43493;53.098;6.064;2022-08-19T07:12:08;32.10;55.00
57664;DHT22;43493;53.098;6.064;2022-08-19T07:14:36;32.10;57.60
57664;DHT22;43493;53.098;6.064;2022-08-19T07:17:05;32.30;57.20
57664;DHT22;43493;53.098;6.064;2022-08-19T07:19:31;32.60;56.20
57664;DHT22;43493;53.098;6.064;2022-08-19T07:21:57;32.60;55.90
57664;DHT22;43493;53.098;6.064;2022-08-19T07:24:26;32.60;56.10
57664;DHT22;43493;53.098;6.064;2022-08-19T07:26:54;32.60;55.50
57664;DHT22;43493;53.098;6.064;2022-08-19T07:29:21;32.70;54.90
57664;DHT22;43493;53.098;6.064;2022-08-19T07:31:50;32.80;55.10
57664;DHT22;43493;53.098;6.064;2022-08-19T07:34:17;33.00;54.80
57664;DHT22;43493;53.098;6.064;2022-08-19T07:36:43;33.20;53.80
57664;DHT22;43493;53.098;6.064;2022-08-19T07:39:13;33.30;53.40
57664;DHT22;43493;53.098;6.064;2022-08-19T07:46:37;33.90;51.60
57664;DHT22;43493;53.098;6.064;2022-08-19T07:49:06;34.10;51.40
57664;DHT22;43493;53.098;6.064;2022-08-19T07:51:32;34.20;51.20
57664;DHT22;43493;53.098;6.064;2022-08-19T07:53:58;34.20;51.20
57664;DHT22;43493;53.098;6.064;2022-08-19T08:03:46;33.70;49.50
57664;DHT22;43493;53.098;6.064;2022-08-19T08:06:31;33.50;51.30
57664;DHT22;43493;53.098;6.064;2022-08-19T08:09:17;32.90;68.50
57664;DHT22;43493;53.098;6.064;2022-08-19T08:12:14;31.80;54.40
57664;DHT22;43493;53.098;6.064;2022-08-19T08:14:44;31.20;56.20
57664;DHT22;43493;53.098;6.064;2022-08-19T08:17:11;30.60;57.40
57664;DHT22;43493;53.098;6.064;2022-08-19T08:19:38;30.10;58.70
57664;DHT22;43493;53.098;6.064;2022-08-19T08:22:07;29.70;59.80
57664;DHT22;43493;53.098;6.064;2022-08-19T08:24:33;29.50;61.70
57664;DHT22;43493;53.098;6.064;2022-08-19T08:27:01;29.00;63.70
57664;DHT22;43493;53.098;6.064;2022-08-19T08:29:28;28.60;66.00
57664;DHT22;43493;53.098;6.064;2022-08-19T08:31:55;28.40;67.90
57664;DHT22;43493;53.098;6.064;2022-08-19T08:34:21;28.20;71.50
57664;DHT22;43493;53.098;6.064;2022-08-19T08:36:47;28.10;73.90
57664;DHT22;43493;53.098;6.064;2022-08-19T08:39:18;28.10;74.60
57664;DHT22;43493;53.098;6.064;2022-08-19T08:47:16;27.90;79.00
57664;DHT22;43493;53.098;6.064;2022-08-19T08:49:56;27.60;79.90
57664;DHT22;43493;53.098;6.064;2022-08-19T08:52:30;27.50;81.60
57664;DHT22;43493;53.098;6.064;2022-08-19T08:54:59;27.50;83.20
57664;DHT22;43493;53.098;6.064;2022-08-19T09:00:22;27.30;86.40
57664;DHT22;43493;53.098;6.064;2022-08-19T09:02:48;27.10;90.20
57664;DHT22;43493;53.098;6.064;2022-08-19T09:05:13;27.10;89.80
57664;DHT22;43493;53.098;6.064;2022-08-19T09:07:42;27.10;90.70
57664;DHT22;43493;53.098;6.064;2022-08-19T09:15:56;27.10;92.40
57664;DHT22;43493;53.098;6.064;2022-08-19T09:18:23;27.00;92.70
57664;DHT22;43493;53.098;6.064;2022-08-19T09:20:49;26.90;93.30
57664;DHT22;43493;53.098;6.064;2022-08-19T09:23:15;27.00;93.40
57664;DHT22;43493;53.098;6.064;2022-08-19T09:25:41;26.90;92.70
57664;DHT22;43493;53.098;6.064;2022-08-19T09:28:07;26.80;92.70
57664;DHT22;43493;53.098;6.064;2022-08-19T09:30:38;26.80;93.60
57664;DHT22;43493;53.098;6.064;2022-08-19T09:33:05;26.80;94.50
57664;DHT22;43493;53.098;6.064;2022-08-19T09:35:32;26.70;95.40
57664;DHT22;43493;53.098;6.064;2022-08-19T09:37:58;26.80;95.90
57664;DHT22;43493;53.098;6.064;2022-08-19T09:40:28;26.90;96.20
57664;DHT22;43493;53.098;6.064;2022-08-19T09:42:54;26.90;96.90
57664;DHT22;43493;53.098;6.064;2022-08-19T09:45:22;26.90;96.40
57664;DHT22;43493;53.098;6.064;2022-08-19T09:47:52;26.90;95.80
57664;DHT22;43493;53.098;6.064;2022-08-19T09:50:18;26.90;95.70
57664;DHT22;43493;53.098;6.064;2022-08-19T09:52:44;26.90;95.90
57664;DHT22;43493;53.098;6.064;2022-08-19T09:55:10;26.80;95.60
57664;DHT22;43493;53.098;6.064;2022-08-19T09:57:37;26.80;94.40
57664;DHT22;43493;53.098;6.064;2022-08-19T10:00:05;26.80;94.10
57664;DHT22;43493;53.098;6.064;2022-08-19T10:02:31;26.70;93.20
57664;DHT22;43493;53.098;6.064;2022-08-19T10:04:56;26.60;93.00
57664;DHT22;43493;53.098;6.064;2022-08-19T10:07:40;26.60;93.80
57664;DHT22;43493;53.098;6.064;2022-08-19T10:10:07;26.50;93.80
57664;DHT22;43493;53.098;6.064;2022-08-19T10:12:35;26.50;94.20
57664;DHT22;43493;53.098;6.064;2022-08-19T10:15:03;26.50;95.10
57664;DHT22;43493;53.098;6.064;2022-08-19T10:17:29;26.50;95.20
57664;DHT22;43493;53.098;6.064;2022-08-19T10:19:55;26.50;94.90
57664;DHT22;43493;53.098;6.064;2022-08-19T10:22:21;26.50;94.70
57664;DHT22;43493;53.098;6.064;2022-08-19T10:24:47;26.50;95.00
57664;DHT22;43493;53.098;6.064;2022-08-19T10:27:13;26.60;95.00
57664;DHT22;43493;53.098;6.064;2022-08-19T10:29:40;26.60;95.20
57664;DHT22;43493;53.098;6.064;2022-08-19T10:32:07;26.60;95.30
57664;DHT22;43493;53.098;6.064;2022-08-19T10:34:34;26.60;95.70
57664;DHT22;43493;53.098;6.064;2022-08-19T10:37:02;26.70;95.40
57664;DHT22;43493;53.098;6.064;2022-08-19T10:39:32;26.70;95.80
57664;DHT22;43493;53.098;6.064;2022-08-19T10:41:58;26.80;95.80
57664;DHT22;43493;53.098;6.064;2022-08-19T10:44:24;26.70;95.00
57664;DHT22;43493;53.098;6.064;2022-08-19T10:46:50;26.70;94.70
57664;DHT22;43493;53.098;6.064;2022-08-19T10:49:17;26.60;94.60
57664;DHT22;43493;53.098;6.064;2022-08-19T10:51:44;26.60;94.90
57664;DHT22;43493;53.098;6.064;2022-08-19T10:54:29;26.50;95.20
57664;DHT22;43493;53.098;6.064;2022-08-19T10:57:14;26.50;95.80
57664;DHT22;43493;53.098;6.064;2022-08-19T10:59:40;26.50;96.40
57664;DHT22;43493;53.098;6.064;2022-08-19T11:02:09;26.60;95.90
57664;DHT22;43493;53.098;6.064;2022-08-19T11:04:37;26.60;95.60
57664;DHT22;43493;53.098;6.064;2022-08-19T11:07:04;26.50;95.40
57664;DHT22;43493;53.098;6.064;2022-08-19T11:09:31;26.50;96.00
57664;DHT22;43493;53.098;6.064;2022-08-19T11:11:57;26.50;95.90
57664;DHT22;43493;53.098;6.064;2022-08-19T11:14:24;26.50;95.70
57664;DHT22;43493;53.098;6.064;2022-08-19T11:16:51;26.40;96.50
57664;DHT22;43493;53.098;6.064;2022-08-19T11:19:19;26.40;97.00
57664;DHT22;43493;53.098;6.064;2022-08-19T11:21:47;26.40;97.50
57664;DHT22;43493;53.098;6.064;2022-08-19T11:24:19;26.30;97.70
57664;DHT22;43493;53.098;6.064;2022-08-19T11:26:47;26.30;98.10
57664;DHT22;43493;53.098;6.064;2022-08-19T11:29:16;26.20;98.50
57664;DHT22;43493;53.098;6.064;2022-08-19T11:31:44;26.20;98.80
57664;DHT22;43493;53.098;6.064;2022-08-19T11:34:14;26.20;98.90
57664;DHT22;43493;53.098;6.064;2022-08-19T11:36:43;26.10;99.90
57664;DHT22;43493;53.098;6.064;2022-08-19T11:39:12;26.00;99.90
57664;DHT22;43493;53.098;6.064;2022-08-19T11:41:38;25.90;99.90
57664;DHT22;43493;53.098;6.064;2022-08-19T11:44:04;25.80;99.90
57664;DHT22;43493;53.098;6.064;2022-08-19T11:46:34;25.70;99.90
57664;DHT22;43493;53.098;6.064;2022-08-19T11:49:01;25.70;99.90
57664;DHT22;43493;53.098;6.064;2022-08-19T11:51:28;25.70;99.90
57664;DHT22;43493;53.098;6.064;2022-08-19T11:53:55;25.80;99.90
57664;DHT22;43493;53.098;6.064;2022-08-19T11:56:22;25.90;99.90
57664;DHT22;43493;53.098;6.064;2022-08-19T11:58:48;26.00;99.90
57664;DHT22;43493;53.098;6.064;2022-08-19T12:01:16;26.10;99.90
57664;DHT22;43493;53.098;6.064;2022-08-19T12:03:47;26.10;99.90
57664;DHT22;43493;53.098;6.064;2022-08-19T12:06:20;26.10;99.90
57664;DHT22;43493;53.098;6.064;2022-08-19T12:08:49;26.20;99.90
57664;DHT22;43493;53.098;6.064;2022-08-19T12:11:15;26.20;99.90
57664;DHT22;43493;53.098;6.064;2022-08-19T12:13:42;26.30;99.90
57664;DHT22;43493;53.098;6.064;2022-08-19T12:16:14;26.30;99.90
57664;DHT22;43493;53.098;6.064;2022-08-19T12:18:42;26.30;99.90
57664;DHT22;43493;53.098;6.064;2022-08-19T12:21:12;26.20;99.90
57664;DHT22;43493;53.098;6.064;2022-08-19T12:23:42;26.20;99.90
57664;DHT22;43493;53.098;6.064;2022-08-19T12:26:09;26.10;99.90
57664;DHT22;43493;53.098;6.064;2022-08-19T12:28:36;26.00;99.90
57664;DHT22;43493;53.098;6.064;2022-08-19T12:31:02;26.00;99.90
57664;DHT22;43493;53.098;6.064;2022-08-19T12:33:27;26.00;99.90
57664;DHT22;43493;53.098;6.064;2022-08-19T12:35:54;26.00;99.90
57664;DHT22;43493;53.098;6.064;2022-08-19T12:38:20;26.00;99.90
57664;DHT22;43493;53.098;6.064;2022-08-19T12:40:49;26.10;99.90
57664;DHT22;43493;53.098;6.064;2022-08-19T12:43:17;26.10;99.90
57664;DHT22;43493;53.098;6.064;2022-08-19T12:45:43;26.10;99.90
57664;DHT22;43493;53.098;6.064;2022-08-19T12:48:10;26.10;99.90
57664;DHT22;43493;53.098;6.064;2022-08-19T12:50:39;26.10;99.90
57664;DHT22;43493;53.098;6.064;2022-08-19T12:53:05;26.10;99.90
57664;DHT22;43493;53.098;6.064;2022-08-19T12:55:30;26.00;99.90
57664;DHT22;43493;53.098;6.064;2022-08-19T12:57:57;26.00;99.90
57664;DHT22;43493;53.098;6.064;2022-08-19T13:00:23;25.90;99.90
57664;DHT22;43493;53.098;6.064;2022-08-19T13:02:51;25.90;99.90
57664;DHT22;43493;53.098;6.064;2022-08-19T13:05:20;25.80;99.90
57664;DHT22;43493;53.098;6.064;2022-08-19T13:07:48;25.80;99.90
57664;DHT22;43493;53.098;6.064;2022-08-19T13:10:17;25.70;99.90
57664;DHT22;43493;53.098;6.064;2022-08-19T13:12:44;25.70;99.90
57664;DHT22;43493;53.098;6.064;2022-08-19T13:15:11;25.60;99.90
57664;DHT22;43493;53.098;6.064;2022-08-19T13:17:38;25.60;99.90
57664;DHT22;43493;53.098;6.064;2022-08-19T13:20:04;25.60;99.90
57664;DHT22;43493;53.098;6.064;2022-08-19T13:22:32;25.60;99.90
57664;DHT22;43493;53.098;6.064;2022-08-19T13:24:58;25.60;99.90
57664;DHT22;43493;53.098;6.064;2022-08-19T13:27:24;25.60;99.90
57664;DHT22;43493;53.098;6.064;2022-08-19T13:29:49;25.60;99.90
57664;DHT22;43493;53.098;6.064;2022-08-19T13:32:33;25.60;99.90
57664;DHT22;43493;53.098;6.064;2022-08-19T13:35:18;25.40;99.90
57664;DHT22;43493;53.098;6.064;2022-08-19T13:37:44;25.30;99.90
57664;DHT22;43493;53.098;6.064;2022-08-19T13:40:12;25.20;99.90
57664;DHT22;43493;53.098;6.064;2022-08-19T13:42:44;25.00;99.90
57664;DHT22;43493;53.098;6.064;2022-08-19T13:45:12;24.80;99.90
57664;DHT22;43493;53.098;6.064;2022-08-19T13:47:39;24.70;99.90
57664;DHT22;43493;53.098;6.064;2022-08-19T13:50:09;24.60;99.90
57664;DHT22;43493;53.098;6.064;2022-08-19T13:52:36;24.60;99.90
57664;DHT22;43493;53.098;6.064;2022-08-19T13:55:03;24.40;99.90
57664;DHT22;43493;53.098;6.064;2022-08-19T13:57:30;24.30;99.90
57664;DHT22;43493;53.098;6.064;2022-08-19T13:59:57;24.30;99.90
57664;DHT22;43493;53.098;6.064;2022-08-19T14:02:23;24.40;99.90
57664;DHT22;43493;53.098;6.064;2022-08-19T14:04:49;24.40;99.90
57664;DHT22;43493;53.098;6.064;2022-08-19T14:07:15;24.40;99.90
57664;DHT22;43493;53.098;6.064;2022-08-19T14:09:40;24.40;99.90
57664;DHT22;43493;53.098;6.064;2022-08-19T14:12:06;24.50;99.90
57664;DHT22;43493;53.098;6.064;2022-08-19T14:14:36;24.50;99.90
57664;DHT22;43493;53.098;6.064;2022-08-19T14:17:06;24.60;99.90
57664;DHT22;43493;53.098;6.064;2022-08-19T14:19:32;24.70;99.90
57664;DHT22;43493;53.098;6.064;2022-08-19T14:21:57;24.60;99.90
57664;DHT22;43493;53.098;6.064;2022-08-19T14:24:23;24.70;99.90
57664;DHT22;43493;53.098;6.064;2022-08-19T14:26:49;24.70;99.90
57664;DHT22;43493;53.098;6.064;2022-08-19T14:29:15;24.70;99.90
57664;DHT22;43493;53.098;6.064;2022-08-19T14:31:41;24.80;99.90
57664;DHT22;43493;53.098;6.064;2022-08-19T14:34:08;24.90;99.90
57664;DHT22;43493;53.098;6.064;2022-08-19T14:36:36;24.90;99.90
57664;DHT22;43493;53.098;6.064;2022-08-19T14:39:03;24.90;99.90
57664;DHT22;43493;53.098;6.064;2022-08-19T14:41:29;24.90;99.90
57664;DHT22;43493;53.098;6.064;2022-08-19T14:43:56;24.90;99.90
57664;DHT22;43493;53.098;6.064;2022-08-19T14:46:24;24.90;99.90
57664;DHT22;43493;53.098;6.064;2022-08-19T14:48:50;24.90;99.90
57664;DHT22;43493;53.098;6.064;2022-08-19T14:51:17;24.90;99.90
57664;DHT22;43493;53.098;6.064;2022-08-19T14:53:43;24.90;99.90
57664;DHT22;43493;53.098;6.064;2022-08-19T14:56:12;24.90;99.90
57664;DHT22;43493;53.098;6.064;2022-08-19T14:58:39;24.90;99.90
57664;DHT22;43493;53.098;6.064;2022-08-19T15:01:06;24.90;99.90
57664;DHT22;43493;53.098;6.064;2022-08-19T15:03:32;24.90;99.90
57664;DHT22;43493;53.098;6.064;2022-08-19T15:05:59;24.90;99.90
57664;DHT22;43493;53.098;6.064;2022-08-19T15:08:26;24.90;99.90
57664;DHT22;43493;53.098;6.064;2022-08-19T15:10:52;24.90;99.90
57664;DHT22;43493;53.098;6.064;2022-08-19T15:13:18;24.90;99.90
57664;DHT22;43493;53.098;6.064;2022-08-19T15:15:44;25.00;99.90
57664;DHT22;43493;53.098;6.064;2022-08-19T15:18:10;25.10;99.90
57664;DHT22;43493;53.098;6.064;2022-08-19T15:20:38;25.10;99.90
57664;DHT22;43493;53.098;6.064;2022-08-19T15:23:04;25.20;99.90
57664;DHT22;43493;53.098;6.064;2022-08-19T15:25:31;25.20;99.90
57664;DHT22;43493;53.098;6.064;2022-08-19T15:27:58;25.20;99.90
57664;DHT22;43493;53.098;6.064;2022-08-19T15:30:27;25.10;99.90
57664;DHT22;43493;53.098;6.064;2022-08-19T15:32:54;25.10;99.90
57664;DHT22;43493;53.098;6.064;2022-08-19T15:35:21;25.00;99.90
57664;DHT22;43493;53.098;6.064;2022-08-19T15:37:51;25.00;99.90
57664;DHT22;43493;53.098;6.064;2022-08-19T15:40:18;25.00;99.90
57664;DHT22;43493;53.098;6.064;2022-08-19T15:42:44;24.90;99.90
57664;DHT22;43493;53.098;6.064;2022-08-19T15:45:12;24.90;99.90
57664;DHT22;43493;53.098;6.064;2022-08-19T15:47:38;24.90;99.90
57664;DHT22;43493;53.098;6.064;2022-08-19T15:50:19;24.90;99.90
57664;DHT22;43493;53.098;6.064;2022-08-19T15:52:55;25.10;99.90
57664;DHT22;43493;53.098;6.064;2022-08-19T15:55:24;25.10;99.90
57664;DHT22;43493;53.098;6.064;2022-08-19T15:57:50;25.20;99.90
57664;DHT22;43493;53.098;6.064;2022-08-19T16:00:35;25.20;99.90
57664;DHT22;43493;53.098;6.064;2022-08-19T16:03:19;25.20;99.90
57664;DHT22;43493;53.098;6.064;2022-08-19T16:06:03;25.20;99.90
57664;DHT22;43493;53.098;6.064;2022-08-19T16:08:48;25.30;99.90
57664;DHT22;43493;53.098;6.064;2022-08-19T16:11:17;25.30;99.90
57664;DHT22;43493;53.098;6.064;2022-08-19T16:13:46;25.30;99.90
57664;DHT22;43493;53.098;6.064;2022-08-19T16:16:17;25.30;99.90
57664;DHT22;43493;53.098;6.064;2022-08-19T16:18:43;25.30;99.90